sensor_id;sensor_type;location;lat;lon;timestamp;P1;durP1;ratioP1;P2;durP2;ratioP2
73154;SDS011;61364;52.418;7.382;2022-08-01T00:00:26;3.95;;;3.95;;
73154;SDS011;61364;52.418;7.382;2022-08-01T00:02:52;3.79;;;3.79;;
73154;SDS011;61364;52.418;7.382;2022-08-01T00:05:17;3.75;;;3.75;;
73154;SDS011;61364;52.418;7.382;2022-08-01T00:07:43;3.69;;;3.69;;
73154;SDS011;61364;52.418;7.382;2022-08-01T00:10:11;3.63;;;3.63;;
73154;SDS011;61364;52.418;7.382;2022-08-01T00:12:38;3.70;;;3.70;;
73154;SDS011;61364;52.418;7.382;2022-08-01T00:15:05;3.78;;;3.78;;
73154;SDS011;61364;52.418;7.382;2022-08-01T00:17:32;3.89;;;3.89;;
73154;SDS011;61364;52.418;7.382;2022-08-01T00:19:57;3.75;;;3.75;;
73154;SDS011;61364;52.418;7.382;2022-08-01T00:22:23;3.62;;;3.62;;
73154;SDS011;61364;52.418;7.382;2022-08-01T00:24:48;3.60;;;3.60;;
73154;SDS011;61364;52.418;7.382;2022-08-01T00:27:14;3.65;;;3.65;;
73154;SDS011;61364;52.418;7.382;2022-08-01T00:29:39;3.56;;;3.56;;
73154;SDS011;61364;52.418;7.382;2022-08-01T00:32:05;3.64;;;3.64;;
73154;SDS011;61364;52.418;7.382;2022-08-01T00:34:31;3.61;;;3.61;;
73154;SDS011;61364;52.418;7.382;2022-08-01T00:36:56;3.73;;;3.68;;
73154;SDS011;61364;52.418;7.382;2022-08-01T00:39:22;3.75;;;3.74;;
73154;SDS011;61364;52.418;7.382;2022-08-01T00:41:48;3.58;;;3.58;;
73154;SDS011;61364;52.418;7.382;2022-08-01T00:44:13;3.84;;;3.84;;
73154;SDS011;61364;52.418;7.382;2022-08-01T00:46:39;3.84;;;3.83;;
73154;SDS011;61364;52.418;7.382;2022-08-01T00:49:04;3.80;;;3.80;;
73154;SDS011;61364;52.418;7.382;2022-08-01T00:51:30;3.96;;;3.96;;
73154;SDS011;61364;52.418;7.382;2022-08-01T00:53:56;4.00;;;4.00;;
73154;SDS011;61364;52.418;7.382;2022-08-01T00:56:23;4.04;;;3.97;;
73154;SDS011;61364;52.418;7.382;2022-08-01T00:58:50;3.78;;;3.75;;
73154;SDS011;61364;52.418;7.382;2022-08-01T01:01:16;3.91;;;3.91;;
73154;SDS011;61364;52.418;7.382;2022-08-01T01:03:43;4.03;;;4.03;;
73154;SDS011;61364;52.418;7.382;2022-08-01T01:08:46;3.87;;;3.87;;
73154;SDS011;61364;52.418;7.382;2022-08-01T01:11:21;4.22;;;4.22;;
73154;SDS011;61364;52.418;7.382;2022-08-01T01:13:52;4.29;;;4.29;;
73154;SDS011;61364;52.418;7.382;2022-08-01T01:16:21;4.22;;;4.22;;
73154;SDS011;61364;52.418;7.382;2022-08-01T01:18:53;4.10;;;4.10;;
73154;SDS011;61364;52.418;7.382;2022-08-01T01:29:03;5.10;;;5.06;;
73154;SDS011;61364;52.418;7.382;2022-08-01T01:31:33;4.31;;;4.31;;
73154;SDS011;61364;52.418;7.382;2022-08-01T01:34:02;4.36;;;4.36;;
73154;SDS011;61364;52.418;7.382;2022-08-01T01:36:29;4.64;;;4.64;;
73154;SDS011;61364;52.418;7.382;2022-08-01T01:38:57;4.80;;;4.80;;
73154;SDS011;61364;52.418;7.382;2022-08-01T01:41:25;5.13;;;5.09;;
73154;SDS011;61364;52.418;7.382;2022-08-01T01:43:54;4.92;;;4.90;;
73154;SDS011;61364;52.418;7.382;2022-08-01T01:46:22;5.31;;;5.20;;
73154;SDS011;61364;52.418;7.382;2022-08-01T01:48:52;5.27;;;5.20;;
73154;SDS011;61364;52.418;7.382;2022-08-01T01:51:21;4.84;;;4.81;;
73154;SDS011;61364;52.418;7.382;2022-08-01T01:53:48;5.15;;;5.13;;
73154;SDS011;61364;52.418;7.382;2022-08-01T01:56:16;5.02;;;5.00;;
73154;SDS011;61364;52.418;7.382;2022-08-01T01:58:44;5.34;;;5.26;;
73154;SDS011;61364;52.418;7.382;2022-08-01T02:01:14;5.38;;;5.38;;
73154;SDS011;61364;52.418;7.382;2022-08-01T02:03:42;5.38;;;5.38;;
73154;SDS011;61364;52.418;7.382;2022-08-01T02:06:08;5.58;;;5.48;;
73154;SDS011;61364;52.418;7.382;2022-08-01T02:08:37;5.57;;;5.37;;
73154;SDS011;61364;52.418;7.382;2022-08-01T02:11:06;5.47;;;5.47;;
73154;SDS011;61364;52.418;7.382;2022-08-01T02:13:45;5.69;;;5.69;;
73154;SDS011;61364;52.418;7.382;2022-08-01T02:16:12;5.73;;;5.73;;
73154;SDS011;61364;52.418;7.382;2022-08-01T02:18:40;5.72;;;5.72;;
73154;SDS011;61364;52.418;7.382;2022-08-01T02:21:08;5.98;;;5.98;;
73154;SDS011;61364;52.418;7.382;2022-08-01T02:23:37;5.60;;;5.59;;
73154;SDS011;61364;52.418;7.382;2022-08-01T02:26:07;5.53;;;5.52;;
73154;SDS011;61364;52.418;7.382;2022-08-01T02:28:36;5.92;;;5.92;;
73154;SDS011;61364;52.418;7.382;2022-08-01T02:31:06;5.57;;;5.57;;
73154;SDS011;61364;52.418;7.382;2022-08-01T02:34:08;5.88;;;5.88;;
73154;SDS011;61364;52.418;7.382;2022-08-01T02:36:27;6.31;;;6.31;;
73154;SDS011;61364;52.418;7.382;2022-08-01T02:38:54;6.18;;;6.18;;
73154;SDS011;61364;52.418;7.382;2022-08-01T02:41:23;6.34;;;6.34;;
73154;SDS011;61364;52.418;7.382;2022-08-01T02:43:53;6.10;;;6.09;;
73154;SDS011;61364;52.418;7.382;2022-08-01T02:46:26;6.38;;;6.33;;
73154;SDS011;61364;52.418;7.382;2022-08-01T02:48:55;6.23;;;6.17;;
73154;SDS011;61364;52.418;7.382;2022-08-01T02:51:24;6.17;;;6.17;;
73154;SDS011;61364;52.418;7.382;2022-08-01T02:53:52;6.15;;;6.14;;
73154;SDS011;61364;52.418;7.382;2022-08-01T02:56:19;6.20;;;6.19;;
73154;SDS011;61364;52.418;7.382;2022-08-01T02:58:48;5.98;;;5.98;;
73154;SDS011;61364;52.418;7.382;2022-08-01T03:01:16;6.08;;;6.08;;
73154;SDS011;61364;52.418;7.382;2022-08-01T03:03:43;6.11;;;6.11;;
73154;SDS011;61364;52.418;7.382;2022-08-01T03:06:10;6.52;;;6.52;;
73154;SDS011;61364;52.418;7.382;2022-08-01T03:08:37;6.46;;;6.46;;
73154;SDS011;61364;52.418;7.382;2022-08-01T03:11:04;5.95;;;5.93;;
73154;SDS011;61364;52.418;7.382;2022-08-01T03:13:32;6.41;;;6.38;;
73154;SDS011;61364;52.418;7.382;2022-08-01T03:15:59;6.55;;;6.50;;
73154;SDS011;61364;52.418;7.382;2022-08-01T03:18:26;6.23;;;6.08;;
73154;SDS011;61364;52.418;7.382;2022-08-01T03:20:54;6.04;;;6.01;;
73154;SDS011;61364;52.418;7.382;2022-08-01T03:23:21;5.51;;;5.50;;
73154;SDS011;61364;52.418;7.382;2022-08-01T03:25:49;6.01;;;5.97;;
73154;SDS011;61364;52.418;7.382;2022-08-01T03:28:17;5.67;;;5.67;;
73154;SDS011;61364;52.418;7.382;2022-08-01T03:30:45;5.69;;;5.69;;
73154;SDS011;61364;52.418;7.382;2022-08-01T03:33:15;5.66;;;5.66;;
73154;SDS011;61364;52.418;7.382;2022-08-01T03:35:46;6.07;;;6.03;;
73154;SDS011;61364;52.418;7.382;2022-08-01T03:38:13;6.62;;;6.44;;
73154;SDS011;61364;52.418;7.382;2022-08-01T03:40:45;6.47;;;6.41;;
73154;SDS011;61364;52.418;7.382;2022-08-01T03:43:38;6.27;;;6.27;;
73154;SDS011;61364;52.418;7.382;2022-08-01T03:46:01;6.19;;;6.19;;
73154;SDS011;61364;52.418;7.382;2022-08-01T03:48:33;6.89;;;6.76;;
73154;SDS011;61364;52.418;7.382;2022-08-01T03:51:02;6.85;;;6.78;;
73154;SDS011;61364;52.418;7.382;2022-08-01T03:53:30;6.96;;;6.91;;
73154;SDS011;61364;52.418;7.382;2022-08-01T03:55:58;7.07;;;7.06;;
73154;SDS011;61364;52.418;7.382;2022-08-01T03:58:26;6.87;;;6.87;;
73154;SDS011;61364;52.418;7.382;2022-08-01T04:00:52;7.17;;;7.12;;
73154;SDS011;61364;52.418;7.382;2022-08-01T04:03:19;6.94;;;6.90;;
73154;SDS011;61364;52.418;7.382;2022-08-01T04:05:45;6.92;;;6.92;;
73154;SDS011;61364;52.418;7.382;2022-08-01T04:08:11;6.93;;;6.93;;
73154;SDS011;61364;52.418;7.382;2022-08-01T04:10:37;7.07;;;7.06;;
73154;SDS011;61364;52.418;7.382;2022-08-01T04:13:03;6.94;;;6.84;;
73154;SDS011;61364;52.418;7.382;2022-08-01T04:15:28;7.13;;;7.06;;
73154;SDS011;61364;52.418;7.382;2022-08-01T04:17:54;7.18;;;7.04;;
73154;SDS011;61364;52.418;7.382;2022-08-01T04:20:20;7.26;;;7.17;;
73154;SDS011;61364;52.418;7.382;2022-08-01T04:22:45;7.00;;;6.88;;
73154;SDS011;61364;52.418;7.382;2022-08-01T04:25:12;6.54;;;6.54;;
73154;SDS011;61364;52.418;7.382;2022-08-01T04:27:42;6.84;;;6.84;;
73154;SDS011;61364;52.418;7.382;2022-08-01T04:30:09;6.38;;;6.38;;
73154;SDS011;61364;52.418;7.382;2022-08-01T04:32:37;6.51;;;6.51;;
73154;SDS011;61364;52.418;7.382;2022-08-01T04:35:05;6.03;;;6.03;;
73154;SDS011;61364;52.418;7.382;2022-08-01T04:37:33;5.99;;;5.97;;
73154;SDS011;61364;52.418;7.382;2022-08-01T04:40:05;6.21;;;6.01;;
73154;SDS011;61364;52.418;7.382;2022-08-01T04:42:32;6.52;;;6.30;;
73154;SDS011;61364;52.418;7.382;2022-08-01T04:44:58;5.62;;;5.62;;
73154;SDS011;61364;52.418;7.382;2022-08-01T04:47:25;5.34;;;5.34;;
73154;SDS011;61364;52.418;7.382;2022-08-01T04:49:50;5.45;;;5.45;;
73154;SDS011;61364;52.418;7.382;2022-08-01T04:52:16;5.10;;;5.10;;
73154;SDS011;61364;52.418;7.382;2022-08-01T04:54:43;4.95;;;4.95;;
73154;SDS011;61364;52.418;7.382;2022-08-01T04:57:09;4.72;;;4.72;;
73154;SDS011;61364;52.418;7.382;2022-08-01T04:59:36;4.47;;;4.47;;
73154;SDS011;61364;52.418;7.382;2022-08-01T05:02:09;4.68;;;4.68;;
73154;SDS011;61364;52.418;7.382;2022-08-01T05:04:36;4.62;;;4.62;;
73154;SDS011;61364;52.418;7.382;2022-08-01T05:07:02;4.80;;;4.80;;
73154;SDS011;61364;52.418;7.382;2022-08-01T05:09:29;4.48;;;4.48;;
73154;SDS011;61364;52.418;7.382;2022-08-01T05:11:56;4.58;;;4.58;;
73154;SDS011;61364;52.418;7.382;2022-08-01T05:14:24;4.68;;;4.68;;
73154;SDS011;61364;52.418;7.382;2022-08-01T05:16:51;4.72;;;4.72;;
73154;SDS011;61364;52.418;7.382;2022-08-01T05:19:16;4.72;;;4.72;;
73154;SDS011;61364;52.418;7.382;2022-08-01T05:21:42;4.66;;;4.66;;
73154;SDS011;61364;52.418;7.382;2022-08-01T05:24:07;4.91;;;4.91;;
73154;SDS011;61364;52.418;7.382;2022-08-01T05:26:33;4.94;;;4.94;;
73154;SDS011;61364;52.418;7.382;2022-08-01T05:28:59;5.04;;;5.04;;
73154;SDS011;61364;52.418;7.382;2022-08-01T05:31:25;5.19;;;5.19;;
73154;SDS011;61364;52.418;7.382;2022-08-01T05:33:50;5.80;;;5.80;;
73154;SDS011;61364;52.418;7.382;2022-08-01T05:36:16;5.57;;;5.57;;
73154;SDS011;61364;52.418;7.382;2022-08-01T05:38:41;5.50;;;5.50;;
73154;SDS011;61364;52.418;7.382;2022-08-01T05:41:07;5.76;;;5.76;;
73154;SDS011;61364;52.418;7.382;2022-08-01T05:43:33;5.43;;;5.43;;
73154;SDS011;61364;52.418;7.382;2022-08-01T05:45:59;5.21;;;5.21;;
73154;SDS011;61364;52.418;7.382;2022-08-01T05:48:24;4.97;;;4.97;;
73154;SDS011;61364;52.418;7.382;2022-08-01T05:50:50;5.31;;;5.31;;
73154;SDS011;61364;52.418;7.382;2022-08-01T05:53:16;5.25;;;5.25;;
73154;SDS011;61364;52.418;7.382;2022-08-01T05:55:41;5.16;;;5.16;;
73154;SDS011;61364;52.418;7.382;2022-08-01T05:58:07;5.28;;;5.28;;
73154;SDS011;61364;52.418;7.382;2022-08-01T06:00:32;4.73;;;4.73;;
73154;SDS011;61364;52.418;7.382;2022-08-01T06:02:58;5.10;;;5.10;;
73154;SDS011;61364;52.418;7.382;2022-08-01T06:05:24;5.28;;;5.28;;
73154;SDS011;61364;52.418;7.382;2022-08-01T06:07:49;4.84;;;4.84;;
73154;SDS011;61364;52.418;7.382;2022-08-01T06:10:15;3.81;;;3.81;;
73154;SDS011;61364;52.418;7.382;2022-08-01T06:12:40;3.51;;;3.51;;
73154;SDS011;61364;52.418;7.382;2022-08-01T06:15:06;3.45;;;3.45;;
73154;SDS011;61364;52.418;7.382;2022-08-01T06:17:32;3.12;;;3.12;;
73154;SDS011;61364;52.418;7.382;2022-08-01T06:19:58;2.93;;;2.93;;
73154;SDS011;61364;52.418;7.382;2022-08-01T06:22:25;3.11;;;3.11;;
73154;SDS011;61364;52.418;7.382;2022-08-01T06:24:50;3.42;;;3.42;;
73154;SDS011;61364;52.418;7.382;2022-08-01T06:27:16;3.23;;;3.23;;
73154;SDS011;61364;52.418;7.382;2022-08-01T06:29:42;2.69;;;2.69;;
73154;SDS011;61364;52.418;7.382;2022-08-01T06:32:08;2.77;;;2.77;;
73154;SDS011;61364;52.418;7.382;2022-08-01T06:34:35;2.48;;;2.48;;
73154;SDS011;61364;52.418;7.382;2022-08-01T06:37:01;2.65;;;2.65;;
73154;SDS011;61364;52.418;7.382;2022-08-01T06:39:26;2.30;;;2.30;;
73154;SDS011;61364;52.418;7.382;2022-08-01T06:41:52;2.45;;;2.45;;
73154;SDS011;61364;52.418;7.382;2022-08-01T06:44:18;2.36;;;2.36;;
73154;SDS011;61364;52.418;7.382;2022-08-01T06:46:44;2.51;;;2.51;;
73154;SDS011;61364;52.418;7.382;2022-08-01T06:49:09;2.24;;;2.24;;
73154;SDS011;61364;52.418;7.382;2022-08-01T06:51:35;2.31;;;2.31;;
73154;SDS011;61364;52.418;7.382;2022-08-01T06:54:00;2.16;;;2.16;;
73154;SDS011;61364;52.418;7.382;2022-08-01T06:56:25;2.03;;;2.03;;
73154;SDS011;61364;52.418;7.382;2022-08-01T06:58:51;2.21;;;2.21;;
73154;SDS011;61364;52.418;7.382;2022-08-01T07:01:17;2.39;;;2.39;;
73154;SDS011;61364;52.418;7.382;2022-08-01T07:03:42;2.13;;;2.13;;
73154;SDS011;61364;52.418;7.382;2022-08-01T07:06:08;2.23;;;2.23;;
73154;SDS011;61364;52.418;7.382;2022-08-01T07:08:34;2.42;;;2.42;;
73154;SDS011;61364;52.418;7.382;2022-08-01T07:11:00;2.32;;;2.32;;
73154;SDS011;61364;52.418;7.382;2022-08-01T07:13:27;2.66;;;2.66;;
73154;SDS011;61364;52.418;7.382;2022-08-01T07:15:52;2.46;;;2.46;;
73154;SDS011;61364;52.418;7.382;2022-08-01T07:18:18;2.51;;;2.51;;
73154;SDS011;61364;52.418;7.382;2022-08-01T07:20:44;2.67;;;2.67;;
73154;SDS011;61364;52.418;7.382;2022-08-01T07:23:11;2.49;;;2.49;;
73154;SDS011;61364;52.418;7.382;2022-08-01T07:25:37;2.56;;;2.56;;
73154;SDS011;61364;52.418;7.382;2022-08-01T07:28:02;2.53;;;2.53;;
73154;SDS011;61364;52.418;7.382;2022-08-01T07:30:28;2.53;;;2.53;;
73154;SDS011;61364;52.418;7.382;2022-08-01T07:32:53;2.38;;;2.38;;
73154;SDS011;61364;52.418;7.382;2022-08-01T07:35:19;2.46;;;2.46;;
73154;SDS011;61364;52.418;7.382;2022-08-01T07:37:44;2.46;;;2.46;;
73154;SDS011;61364;52.418;7.382;2022-08-01T07:40:10;2.55;;;2.55;;
73154;SDS011;61364;52.418;7.382;2022-08-01T07:42:36;2.42;;;2.42;;
73154;SDS011;61364;52.418;7.382;2022-08-01T07:45:01;2.41;;;2.41;;
73154;SDS011;61364;52.418;7.382;2022-08-01T07:47:27;2.59;;;2.59;;
73154;SDS011;61364;52.418;7.382;2022-08-01T07:49:52;2.29;;;2.29;;
73154;SDS011;61364;52.418;7.382;2022-08-01T07:52:23;2.58;;;2.58;;
73154;SDS011;61364;52.418;7.382;2022-08-01T07:54:49;2.67;;;2.67;;
73154;SDS011;61364;52.418;7.382;2022-08-01T07:57:14;2.77;;;2.77;;
73154;SDS011;61364;52.418;7.382;2022-08-01T07:59:40;2.58;;;2.58;;
73154;SDS011;61364;52.418;7.382;2022-08-01T08:02:05;2.72;;;2.72;;
73154;SDS011;61364;52.418;7.382;2022-08-01T08:04:31;2.86;;;2.86;;
73154;SDS011;61364;52.418;7.382;2022-08-01T08:06:56;2.89;;;2.89;;
73154;SDS011;61364;52.418;7.382;2022-08-01T08:09:22;2.93;;;2.93;;
73154;SDS011;61364;52.418;7.382;2022-08-01T08:11:48;2.69;;;2.69;;
73154;SDS011;61364;52.418;7.382;2022-08-01T08:14:14;3.08;;;3.08;;
73154;SDS011;61364;52.418;7.382;2022-08-01T08:16:40;2.90;;;2.90;;
73154;SDS011;61364;52.418;7.382;2022-08-01T08:19:05;3.10;;;3.10;;
73154;SDS011;61364;52.418;7.382;2022-08-01T08:21:30;3.06;;;3.06;;
73154;SDS011;61364;52.418;7.382;2022-08-01T08:23:56;3.07;;;3.07;;
73154;SDS011;61364;52.418;7.382;2022-08-01T08:26:40;3.17;;;3.17;;
73154;SDS011;61364;52.418;7.382;2022-08-01T08:29:06;3.23;;;3.23;;
73154;SDS011;61364;52.418;7.382;2022-08-01T08:31:31;3.22;;;3.22;;
73154;SDS011;61364;52.418;7.382;2022-08-01T08:33:57;3.29;;;3.29;;
73154;SDS011;61364;52.418;7.382;2022-08-01T08:36:22;3.21;;;3.21;;
73154;SDS011;61364;52.418;7.382;2022-08-01T08:38:48;3.21;;;3.21;;
73154;SDS011;61364;52.418;7.382;2022-08-01T08:41:13;3.69;;;3.69;;
73154;SDS011;61364;52.418;7.382;2022-08-01T08:43:39;3.35;;;3.35;;
73154;SDS011;61364;52.418;7.382;2022-08-01T08:46:05;3.34;;;3.34;;
73154;SDS011;61364;52.418;7.382;2022-08-01T08:48:33;3.06;;;3.06;;
73154;SDS011;61364;52.418;7.382;2022-08-01T08:50:59;3.10;;;3.10;;
73154;SDS011;61364;52.418;7.382;2022-08-01T08:53:27;3.09;;;3.09;;
73154;SDS011;61364;52.418;7.382;2022-08-01T08:55:54;2.72;;;2.72;;
73154;SDS011;61364;52.418;7.382;2022-08-01T08:58:22;2.53;;;2.53;;
73154;SDS011;61364;52.418;7.382;2022-08-01T09:00:51;2.62;;;2.62;;
73154;SDS011;61364;52.418;7.382;2022-08-01T09:03:18;2.50;;;2.50;;
73154;SDS011;61364;52.418;7.382;2022-08-01T09:05:44;2.23;;;2.23;;
73154;SDS011;61364;52.418;7.382;2022-08-01T09:08:09;2.31;;;2.31;;
73154;SDS011;61364;52.418;7.382;2022-08-01T09:10:35;2.51;;;2.51;;
73154;SDS011;61364;52.418;7.382;2022-08-01T09:18:08;2.23;;;2.23;;
73154;SDS011;61364;52.418;7.382;2022-08-01T09:20:51;2.34;;;2.34;;
73154;SDS011;61364;52.418;7.382;2022-08-01T09:23:32;2.44;;;2.44;;
73154;SDS011;61364;52.418;7.382;2022-08-01T09:25:58;2.56;;;2.56;;
73154;SDS011;61364;52.418;7.382;2022-08-01T09:28:28;2.51;;;2.51;;
73154;SDS011;61364;52.418;7.382;2022-08-01T09:30:55;2.78;;;2.78;;
73154;SDS011;61364;52.418;7.382;2022-08-01T09:33:20;2.87;;;2.87;;
73154;SDS011;61364;52.418;7.382;2022-08-01T09:35:46;2.78;;;2.78;;
73154;SDS011;61364;52.418;7.382;2022-08-01T09:38:20;3.07;;;3.07;;
73154;SDS011;61364;52.418;7.382;2022-08-01T09:43:12;3.32;;;3.32;;
73154;SDS011;61364;52.418;7.382;2022-08-01T09:45:39;3.23;;;3.23;;
73154;SDS011;61364;52.418;7.382;2022-08-01T09:48:07;3.25;;;3.25;;
73154;SDS011;61364;52.418;7.382;2022-08-01T09:50:43;3.61;;;3.61;;
73154;SDS011;61364;52.418;7.382;2022-08-01T09:53:10;3.85;;;3.85;;
73154;SDS011;61364;52.418;7.382;2022-08-01T09:55:39;3.76;;;3.76;;
73154;SDS011;61364;52.418;7.382;2022-08-01T09:58:06;3.71;;;3.71;;
73154;SDS011;61364;52.418;7.382;2022-08-01T10:00:33;3.34;;;3.34;;
73154;SDS011;61364;52.418;7.382;2022-08-01T10:03:00;3.30;;;3.30;;
73154;SDS011;61364;52.418;7.382;2022-08-01T10:05:44;2.83;;;2.83;;
73154;SDS011;61364;52.418;7.382;2022-08-01T10:08:09;2.71;;;2.71;;
73154;SDS011;61364;52.418;7.382;2022-08-01T10:10:35;2.89;;;2.89;;
73154;SDS011;61364;52.418;7.382;2022-08-01T10:13:01;2.76;;;2.76;;
73154;SDS011;61364;52.418;7.382;2022-08-01T10:15:28;2.47;;;2.47;;
73154;SDS011;61364;52.418;7.382;2022-08-01T10:17:56;2.62;;;2.62;;
73154;SDS011;61364;52.418;7.382;2022-08-01T10:20:29;2.38;;;2.38;;
73154;SDS011;61364;52.418;7.382;2022-08-01T10:23:00;2.54;;;2.54;;
73154;SDS011;61364;52.418;7.382;2022-08-01T10:25:28;2.83;;;2.83;;
73154;SDS011;61364;52.418;7.382;2022-08-01T10:27:54;2.74;;;2.74;;
73154;SDS011;61364;52.418;7.382;2022-08-01T10:30:22;2.83;;;2.83;;
73154;SDS011;61364;52.418;7.382;2022-08-01T10:32:49;3.09;;;3.09;;
73154;SDS011;61364;52.418;7.382;2022-08-01T10:35:15;3.13;;;3.13;;
73154;SDS011;61364;52.418;7.382;2022-08-01T10:37:43;3.42;;;3.42;;
73154;SDS011;61364;52.418;7.382;2022-08-01T10:40:13;3.90;;;3.90;;
73154;SDS011;61364;52.418;7.382;2022-08-01T10:42:39;4.19;;;4.19;;
73154;SDS011;61364;52.418;7.382;2022-08-01T10:45:07;4.01;;;4.01;;
73154;SDS011;61364;52.418;7.382;2022-08-01T10:47:38;3.67;;;3.67;;
73154;SDS011;61364;52.418;7.382;2022-08-01T10:50:11;3.75;;;3.75;;
73154;SDS011;61364;52.418;7.382;2022-08-01T10:52:41;3.44;;;3.44;;
73154;SDS011;61364;52.418;7.382;2022-08-01T10:55:07;3.28;;;3.28;;
73154;SDS011;61364;52.418;7.382;2022-08-01T10:57:43;3.76;;;3.76;;
73154;SDS011;61364;52.418;7.382;2022-08-01T11:00:16;3.99;;;3.99;;
73154;SDS011;61364;52.418;7.382;2022-08-01T11:02:46;3.32;;;3.32;;
73154;SDS011;61364;52.418;7.382;2022-08-01T11:05:22;3.61;;;3.61;;
73154;SDS011;61364;52.418;7.382;2022-08-01T11:07:52;3.97;;;3.97;;
73154;SDS011;61364;52.418;7.382;2022-08-01T11:10:22;4.10;;;4.10;;
73154;SDS011;61364;52.418;7.382;2022-08-01T11:12:50;4.13;;;4.13;;
73154;SDS011;61364;52.418;7.382;2022-08-01T11:15:17;4.21;;;4.21;;
73154;SDS011;61364;52.418;7.382;2022-08-01T11:17:49;4.20;;;4.20;;
73154;SDS011;61364;52.418;7.382;2022-08-01T11:20:17;4.34;;;4.34;;
73154;SDS011;61364;52.418;7.382;2022-08-01T11:30:49;3.15;;;3.15;;
73154;SDS011;61364;52.418;7.382;2022-08-01T11:33:16;2.74;;;2.74;;
73154;SDS011;61364;52.418;7.382;2022-08-01T11:38:27;2.56;;;2.56;;
73154;SDS011;61364;52.418;7.382;2022-08-01T11:41:11;2.32;;;2.32;;
73154;SDS011;61364;52.418;7.382;2022-08-01T11:49:22;2.46;;;2.46;;
73154;SDS011;61364;52.418;7.382;2022-08-01T11:51:47;2.55;;;2.55;;
73154;SDS011;61364;52.418;7.382;2022-08-01T11:54:13;2.66;;;2.66;;
73154;SDS011;61364;52.418;7.382;2022-08-01T11:56:41;2.52;;;2.52;;
73154;SDS011;61364;52.418;7.382;2022-08-01T11:59:07;2.53;;;2.53;;
73154;SDS011;61364;52.418;7.382;2022-08-01T12:01:32;2.40;;;2.40;;
73154;SDS011;61364;52.418;7.382;2022-08-01T12:03:59;2.46;;;2.46;;
73154;SDS011;61364;52.418;7.382;2022-08-01T12:06:28;2.75;;;2.75;;
73154;SDS011;61364;52.418;7.382;2022-08-01T12:08:53;2.61;;;2.61;;
73154;SDS011;61364;52.418;7.382;2022-08-01T12:11:19;2.91;;;2.91;;
73154;SDS011;61364;52.418;7.382;2022-08-01T12:13:44;2.59;;;2.59;;
73154;SDS011;61364;52.418;7.382;2022-08-01T12:16:12;2.95;;;2.95;;
73154;SDS011;61364;52.418;7.382;2022-08-01T12:18:41;2.96;;;2.96;;
73154;SDS011;61364;52.418;7.382;2022-08-01T12:21:07;3.14;;;3.14;;
73154;SDS011;61364;52.418;7.382;2022-08-01T12:23:33;2.97;;;2.97;;
73154;SDS011;61364;52.418;7.382;2022-08-01T12:25:58;3.13;;;3.13;;
73154;SDS011;61364;52.418;7.382;2022-08-01T12:28:25;2.94;;;2.94;;
73154;SDS011;61364;52.418;7.382;2022-08-01T12:30:51;2.86;;;2.86;;
73154;SDS011;61364;52.418;7.382;2022-08-01T12:33:17;2.65;;;2.65;;
73154;SDS011;61364;52.418;7.382;2022-08-01T12:35:44;2.48;;;2.48;;
73154;SDS011;61364;52.418;7.382;2022-08-01T12:38:14;2.79;;;2.79;;
73154;SDS011;61364;52.418;7.382;2022-08-01T12:40:41;2.45;;;2.45;;
73154;SDS011;61364;52.418;7.382;2022-08-01T12:43:08;2.30;;;2.30;;
73154;SDS011;61364;52.418;7.382;2022-08-01T12:45:38;2.39;;;2.39;;
73154;SDS011;61364;52.418;7.382;2022-08-01T12:48:15;2.53;;;2.53;;
73154;SDS011;61364;52.418;7.382;2022-08-01T12:50:45;2.24;;;2.24;;
73154;SDS011;61364;52.418;7.382;2022-08-01T12:53:12;2.57;;;2.57;;
73154;SDS011;61364;52.418;7.382;2022-08-01T12:55:48;2.21;;;2.21;;
73154;SDS011;61364;52.418;7.382;2022-08-01T12:58:15;2.50;;;2.50;;
73154;SDS011;61364;52.418;7.382;2022-08-01T13:00:43;2.47;;;2.47;;
73154;SDS011;61364;52.418;7.382;2022-08-01T13:03:16;2.59;;;2.59;;
73154;SDS011;61364;52.418;7.382;2022-08-01T13:05:47;2.54;;;2.54;;
73154;SDS011;61364;52.418;7.382;2022-08-01T13:08:17;2.75;;;2.75;;
73154;SDS011;61364;52.418;7.382;2022-08-01T13:10:43;2.70;;;2.70;;
73154;SDS011;61364;52.418;7.382;2022-08-01T13:13:09;2.74;;;2.74;;
73154;SDS011;61364;52.418;7.382;2022-08-01T13:15:37;2.69;;;2.69;;
73154;SDS011;61364;52.418;7.382;2022-08-01T13:20:48;2.68;;;2.68;;
73154;SDS011;61364;52.418;7.382;2022-08-01T13:23:15;2.72;;;2.72;;
73154;SDS011;61364;52.418;7.382;2022-08-01T13:25:55;2.91;;;2.91;;
73154;SDS011;61364;52.418;7.382;2022-08-01T13:28:25;2.53;;;2.53;;
73154;SDS011;61364;52.418;7.382;2022-08-01T13:31:09;2.70;;;2.70;;
73154;SDS011;61364;52.418;7.382;2022-08-01T13:33:42;2.72;;;2.72;;
73154;SDS011;61364;52.418;7.382;2022-08-01T13:36:08;2.67;;;2.67;;
73154;SDS011;61364;52.418;7.382;2022-08-01T13:38:34;2.85;;;2.85;;
73154;SDS011;61364;52.418;7.382;2022-08-01T13:41:38;2.60;;;2.60;;
73154;SDS011;61364;52.418;7.382;2022-08-01T13:44:05;2.34;;;2.34;;
73154;SDS011;61364;52.418;7.382;2022-08-01T13:46:31;2.36;;;2.36;;
73154;SDS011;61364;52.418;7.382;2022-08-01T13:48:56;2.45;;;2.45;;
73154;SDS011;61364;52.418;7.382;2022-08-01T13:51:23;2.49;;;2.49;;
73154;SDS011;61364;52.418;7.382;2022-08-01T13:53:49;2.56;;;2.56;;
73154;SDS011;61364;52.418;7.382;2022-08-01T13:56:14;2.34;;;2.34;;
73154;SDS011;61364;52.418;7.382;2022-08-01T13:58:42;2.32;;;2.32;;
73154;SDS011;61364;52.418;7.382;2022-08-01T14:01:11;2.45;;;2.45;;
73154;SDS011;61364;52.418;7.382;2022-08-01T14:03:36;2.34;;;2.34;;
73154;SDS011;61364;52.418;7.382;2022-08-01T14:06:02;2.35;;;2.35;;
73154;SDS011;61364;52.418;7.382;2022-08-01T14:08:28;2.38;;;2.38;;
73154;SDS011;61364;52.418;7.382;2022-08-01T14:10:53;2.52;;;2.52;;
73154;SDS011;61364;52.418;7.382;2022-08-01T14:13:22;2.30;;;2.30;;
73154;SDS011;61364;52.418;7.382;2022-08-01T14:15:48;2.29;;;2.29;;
73154;SDS011;61364;52.418;7.382;2022-08-01T14:18:15;2.24;;;2.24;;
73154;SDS011;61364;52.418;7.382;2022-08-01T14:20:41;2.06;;;2.06;;
73154;SDS011;61364;52.418;7.382;2022-08-01T14:23:08;2.01;;;2.01;;
73154;SDS011;61364;52.418;7.382;2022-08-01T14:25:33;2.23;;;2.23;;
73154;SDS011;61364;52.418;7.382;2022-08-01T14:27:59;2.16;;;2.16;;
73154;SDS011;61364;52.418;7.382;2022-08-01T14:30:24;2.44;;;2.44;;
73154;SDS011;61364;52.418;7.382;2022-08-01T14:32:50;2.21;;;2.21;;
73154;SDS011;61364;52.418;7.382;2022-08-01T14:35:15;2.24;;;2.24;;
73154;SDS011;61364;52.418;7.382;2022-08-01T14:37:41;2.31;;;2.31;;
73154;SDS011;61364;52.418;7.382;2022-08-01T14:40:06;2.33;;;2.33;;
73154;SDS011;61364;52.418;7.382;2022-08-01T14:42:36;2.05;;;2.05;;
73154;SDS011;61364;52.418;7.382;2022-08-01T14:45:02;2.31;;;2.31;;
73154;SDS011;61364;52.418;7.382;2022-08-01T14:47:29;2.27;;;2.27;;
73154;SDS011;61364;52.418;7.382;2022-08-01T14:49:54;2.47;;;2.47;;
73154;SDS011;61364;52.418;7.382;2022-08-01T14:52:20;1.94;;;1.94;;
73154;SDS011;61364;52.418;7.382;2022-08-01T14:54:46;2.06;;;2.06;;
73154;SDS011;61364;52.418;7.382;2022-08-01T14:57:11;2.19;;;2.19;;
73154;SDS011;61364;52.418;7.382;2022-08-01T14:59:37;2.33;;;2.33;;
73154;SDS011;61364;52.418;7.382;2022-08-01T15:02:02;2.22;;;2.22;;
73154;SDS011;61364;52.418;7.382;2022-08-01T15:04:28;2.27;;;2.27;;
73154;SDS011;61364;52.418;7.382;2022-08-01T15:06:53;2.07;;;2.07;;
73154;SDS011;61364;52.418;7.382;2022-08-01T15:09:19;2.24;;;2.24;;
73154;SDS011;61364;52.418;7.382;2022-08-01T15:11:45;2.31;;;2.31;;
73154;SDS011;61364;52.418;7.382;2022-08-01T15:14:12;2.28;;;2.28;;
73154;SDS011;61364;52.418;7.382;2022-08-01T15:16:56;2.29;;;2.29;;
73154;SDS011;61364;52.418;7.382;2022-08-01T15:19:21;2.47;;;2.47;;
73154;SDS011;61364;52.418;7.382;2022-08-01T15:21:47;2.20;;;2.20;;
73154;SDS011;61364;52.418;7.382;2022-08-01T15:24:13;2.40;;;2.40;;
73154;SDS011;61364;52.418;7.382;2022-08-01T15:26:38;2.29;;;2.29;;